Time;durP1;ratioP1;P1;durP2;ratioP2;P2;SDS_P1;SDS_P2;PMS_P1;PMS_P2;Temp;Humidity;BMP_temperature;BMP_pressure;BME280_temperature;BME280_humidity;BME280_pressure;Samples;Min_cycle;Max_cycle;Signal;HPM_P1;HPM_P2
2023/07/13 00:01:25;;;;;;;9.20;2.92;;;;;;;20.02;100.00;-18565.50;5079575;28;20125;-77
2023/07/13 00:03:50;;;;;;;10.32;2.88;;;;;;;19.86;100.00;-18561.16;5086489;28;20070;-76
2023/07/13 00:06:16;;;;;;;9.15;2.63;;;;;;;19.97;100.00;-18564.00;5070467;28;20163;-77
2023/07/13 00:08:41;;;;;;;7.95;2.70;;;;;;;19.81;100.00;-18559.78;5076674;28;20036;-75
2023/07/13 00:11:06;;;;;;;8.25;2.60;;;;;;;19.87;100.00;-18561.41;5083033;28;20036;-77
2023/07/13 00:13:32;;;;;;;8.93;3.10;;;;;;;19.84;100.00;-18560.59;5073094;28;20108;-77
2023/07/13 00:15:58;;;;;;;6.13;2.35;;;;;;;19.88;100.00;-18561.56;5085560;28;20043;-74
2023/07/13 00:18:24;;;;;;;7.68;2.72;;;;;;;19.84;100.00;-18560.59;5082664;28;20128;-76
2023/07/13 00:20:49;;;;;;;6.53;2.50;;;;;;;19.74;100.00;-18557.88;5074475;28;20064;-78
2023/07/13 00:23:15;;;;;;;12.63;2.95;;;;;;;19.86;100.00;-18561.00;5073523;28;20041;-76
2023/07/13 00:25:40;;;;;;;13.63;3.42;;;;;;;19.88;100.00;-18561.56;5079082;28;20047;-76
2023/07/13 00:28:05;;;;;;;11.82;3.75;;;;;;;19.75;100.00;-18558.28;5081490;28;20051;-76
2023/07/13 00:30:31;;;;;;;12.55;3.17;;;;;;;19.87;100.00;-18561.41;5085558;28;20629;-78
2023/07/13 00:32:57;;;;;;;7.95;3.15;;;;;;;19.97;100.00;-18564.16;5080521;28;20041;-77
2023/07/13 00:35:23;;;;;;;13.07;3.38;;;;;;;19.83;100.00;-18560.34;5073059;28;20040;-75
2023/07/13 00:37:49;;;;;;;11.93;3.20;;;;;;;19.80;100.00;-18559.50;5081682;28;20029;-77
2023/07/13 00:40:16;;;;;;;10.60;3.13;;;;;;;19.73;100.00;-18557.75;5082774;28;20059;-75
2023/07/13 00:42:42;;;;;;;12.82;3.72;;;;;;;19.58;100.00;-18553.66;5068295;28;20040;-74
2023/07/13 00:45:13;;;;;;;10.65;3.92;;;;;;;19.72;100.00;-18557.34;5076622;28;20047;-77
2023/07/13 00:47:43;;;;;;;10.77;3.83;;;;;;;19.79;100.00;-18559.38;5075198;28;20076;-76
2023/07/13 00:50:11;;;;;;;10.02;3.80;;;;;;;19.70;100.00;-18556.78;5082241;28;20044;-76
2023/07/13 00:52:42;;;;;;;12.18;3.83;;;;;;;19.77;100.00;-18558.84;5083146;28;20064;-75
2023/07/13 00:55:09;;;;;;;11.20;3.70;;;;;;;19.59;100.00;-18553.91;5082647;28;20044;-76
2023/07/13 00:57:34;;;;;;;17.83;4.85;;;;;;;19.69;100.00;-18556.53;5068299;28;20040;-77
2023/07/13 01:00:04;;;;;;;10.10;4.72;;;;;;;19.67;100.00;-18556.09;5062847;28;20043;-77
2023/07/13 01:02:30;;;;;;;9.35;4.07;;;;;;;19.73;100.00;-18557.59;5074476;28;20036;-76
2023/07/13 01:04:56;;;;;;;10.63;3.22;;;;;;;19.56;100.00;-18553.25;5071124;28;20082;-78
2023/07/13 01:07:22;;;;;;;9.00;2.97;;;;;;;19.60;100.00;-18554.19;5074944;28;20036;-76
2023/07/13 01:09:47;;;;;;;8.35;2.70;;;;;;;19.60;100.00;-18554.19;5077282;28;20032;-78
2023/07/13 01:12:13;;;;;;;10.95;2.85;;;;;;;19.57;100.00;-18553.50;5078858;28;20743;-76
2023/07/13 01:14:39;;;;;;;7.60;2.83;;;;;;;19.68;100.00;-18556.25;5083676;28;20040;-76
2023/07/13 01:17:05;;;;;;;9.70;2.90;;;;;;;19.41;100.00;-18549.03;5089540;28;20051;-76
2023/07/13 01:19:37;;;;;;;12.18;2.80;;;;;;;19.38;100.00;-18548.34;5069514;28;20044;-76
2023/07/13 01:22:14;;;;;;;6.18;2.55;;;;;;;19.51;100.00;-18551.88;5056715;28;20048;-76
2023/07/13 01:24:42;;;;;;;6.65;2.50;;;;;;;19.34;100.00;-18547.38;5056054;28;20061;-76
2023/07/13 01:27:09;;;;;;;7.18;2.95;;;;;;;19.20;100.00;-18543.44;5072954;28;20750;-77
2023/07/13 01:29:41;;;;;;;6.90;2.75;;;;;;;19.33;100.00;-18546.97;5072637;28;20139;-76
2023/07/13 01:32:23;;;;;;;9.20;2.85;;;;;;;19.28;100.00;-18545.63;5070169;28;20044;-76
2023/07/13 01:34:54;;;;;;;9.50;3.00;;;;;;;19.25;100.00;-18544.78;5077264;28;20482;-75
2023/07/13 01:37:20;;;;;;;10.57;3.10;;;;;;;19.14;100.00;-18542.06;5075083;28;20411;-75
2023/07/13 01:39:46;;;;;;;9.30;3.10;;;;;;;19.07;100.00;-18540.03;5077279;28;20028;-75
2023/07/13 01:42:12;;;;;;;11.60;3.47;;;;;;;19.14;100.00;-18541.94;5071647;28;20040;-76
2023/07/13 01:44:38;;;;;;;8.13;3.17;;;;;;;19.29;100.00;-18546.03;5080380;28;20627;-76
2023/07/13 01:47:03;;;;;;;11.70;3.10;;;;;;;19.07;100.00;-18540.16;5070856;28;20040;-76
2023/07/13 01:49:29;;;;;;;12.48;3.67;;;;;;;19.06;100.00;-18539.75;5077810;28;20445;-76
2023/07/13 01:51:54;;;;;;;7.50;3.28;;;;;;;19.29;100.00;-18546.03;5073319;28;20032;-75
2023/07/13 01:54:19;;;;;;;9.15;3.50;;;;;;;19.38;100.00;-18548.34;5078293;28;20044;-76
2023/07/13 01:56:45;;;;;;;9.55;3.38;;;;;;;19.37;100.00;-18548.06;5065216;28;20052;-78
2023/07/13 01:59:10;;;;;;;11.05;3.25;;;;;;;19.33;100.00;-18547.13;5070712;28;20083;-76
2023/07/13 02:01:35;;;;;;;7.47;2.60;;;;;;;19.09;100.00;-18540.56;5077718;28;20040;-77
2023/07/13 02:04:01;;;;;;;8.13;2.35;;;;;;;19.12;100.00;-18541.38;5064232;28;20427;-76
2023/07/13 02:06:26;;;;;;;8.77;2.70;;;;;;;19.19;100.00;-18543.31;5085600;28;20044;-77
2023/07/13 02:08:52;;;;;;;6.63;2.42;;;;;;;19.11;100.00;-18541.25;5084076;28;20046;-76
2023/07/13 02:11:17;;;;;;;7.28;2.28;;;;;;;19.14;100.00;-18542.06;5083603;28;20039;-77
2023/07/13 02:13:43;;;;;;;8.50;2.70;;;;;;;19.25;100.00;-18544.78;5078871;28;20549;-76
2023/07/13 02:16:08;;;;;;;8.70;3.45;;;;;;;19.17;100.00;-18542.88;5078968;28;20489;-76
2023/07/13 02:18:33;;;;;;;13.75;4.18;;;;;;;19.22;100.00;-18543.97;5078998;28;20491;-78
2023/07/13 02:20:59;;;;;;;12.48;4.15;;;;;;;19.11;100.00;-18541.25;5082419;28;20119;-77
2023/07/13 02:23:24;;;;;;;8.63;3.25;;;;;;;19.06;100.00;-18539.91;5067142;28;20040;-77
2023/07/13 02:25:58;;;;;;;9.85;3.15;;;;;;;18.95;100.00;-18536.91;5079395;28;20043;-77
2023/07/13 02:28:23;;;;;;;7.82;2.90;;;;;;;18.60;100.00;-18527.47;5084826;28;20047;-77
2023/07/13 02:30:48;;;;;;;9.93;3.15;;;;;;;18.74;100.00;-18531.31;5081443;28;20041;-76
2023/07/13 02:33:14;;;;;;;10.80;3.45;;;;;;;18.84;100.00;-18534.03;5080407;28;20047;-76
2023/07/13 02:35:39;;;;;;;9.18;3.25;;;;;;;18.80;100.00;-18532.81;5077828;28;20566;-78
2023/07/13 02:38:05;;;;;;;10.23;3.58;;;;;;;18.80;100.00;-18532.81;5082381;28;20140;-77
2023/07/13 02:40:33;;;;;;;10.90;3.53;;;;;;;18.99;100.00;-18537.84;5083083;28;20076;-78
2023/07/13 02:42:58;;;;;;;8.48;3.25;;;;;;;19.02;100.00;-18538.81;5077819;28;20822;-77
2023/07/13 02:45:24;;;;;;;7.65;3.25;;;;;;;18.88;100.00;-18535.13;5066266;28;20044;-77
2023/07/13 02:47:49;;;;;;;10.43;3.25;;;;;;;18.72;100.00;-18530.75;5078142;28;20045;-76
2023/07/13 02:50:14;;;;;;;8.38;2.78;;;;;;;18.79;100.00;-18532.53;5085445;28;20070;-77
2023/07/13 02:52:40;;;;;;;8.20;3.13;;;;;;;18.82;100.00;-18533.50;5084352;28;20121;-77
2023/07/13 02:55:05;;;;;;;10.43;3.40;;;;;;;18.78;100.00;-18532.25;5085666;28;20466;-76
2023/07/13 02:57:32;;;;;;;12.48;4.15;;;;;;;18.84;100.00;-18534.03;5083246;28;20065;-76
2023/07/13 02:59:58;;;;;;;7.28;3.58;;;;;;;18.58;100.00;-18526.94;5075295;28;20050;-78
2023/07/13 03:02:23;;;;;;;10.43;3.70;;;;;;;18.58;100.00;-18527.06;5079822;28;20041;-76
2023/07/13 03:04:49;;;;;;;8.15;3.85;;;;;;;18.54;100.00;-18525.84;5065539;28;20123;-76
2023/07/13 03:07:15;;;;;;;9.15;3.60;;;;;;;18.56;100.00;-18526.53;5081605;28;20040;-76
2023/07/13 03:09:40;;;;;;;9.68;3.17;;;;;;;18.56;100.00;-18526.53;5079126;28;20044;-77
2023/07/13 03:12:06;;;;;;;10.70;3.90;;;;;;;18.64;100.00;-18528.56;5081487;28;20059;-76
2023/07/13 03:14:32;;;;;;;8.73;3.22;;;;;;;18.49;100.00;-18524.63;5083425;28;20040;-76
2023/07/13 03:16:57;;;;;;;7.60;4.00;;;;;;;18.56;100.00;-18526.53;5081016;28;20044;-76
2023/07/13 03:19:22;;;;;;;8.80;3.40;;;;;;;18.62;100.00;-18528.16;5081038;28;20123;-76
2023/07/13 03:21:48;;;;;;;9.60;3.38;;;;;;;18.64;100.00;-18528.56;5077755;28;20384;-76
2023/07/13 03:24:13;;;;;;;8.80;3.22;;;;;;;18.65;100.00;-18528.97;5079742;28;20066;-76
2023/07/13 03:26:39;;;;;;;9.85;3.45;;;;;;;18.68;100.00;-18529.81;5070855;28;20175;-76
2023/07/13 03:29:04;;;;;;;8.30;3.60;;;;;;;18.74;100.00;-18531.16;5076443;28;20121;-76
2023/07/13 03:31:33;;;;;;;7.95;2.58;;;;;;;18.64;100.00;-18528.72;5079663;28;20610;-77
2023/07/13 03:33:59;;;;;;;;;;;;;;;18.82;100.00;-18533.34;5083418;28;20039;-76
2023/07/13 03:36:27;;;;;;;9.95;3.55;;;;;;;18.79;100.00;-18532.66;5083066;28;19920;-77
2023/07/13 03:38:56;;;;;;;7.28;2.92;;;;;;;18.80;100.00;-18532.81;5081987;28;20400;-77
2023/07/13 03:41:22;;;;;;;7.30;2.92;;;;;;;18.87;100.00;-18534.84;5081120;28;20062;-77
2023/07/13 03:43:48;;;;;;;11.85;2.90;;;;;;;18.85;100.00;-18534.16;5063502;28;20129;-76
2023/07/13 03:46:15;;;;;;;8.27;3.05;;;;;;;18.86;100.00;-18534.44;5073543;28;20567;-76
2023/07/13 03:48:42;;;;;;;6.15;3.08;;;;;;;18.90;100.00;-18535.53;5078901;28;20105;-77
2023/07/13 03:51:08;;;;;;;7.68;2.90;;;;;;;18.91;100.00;-18535.94;5074941;28;20044;-76
2023/07/13 03:53:38;;;;;;;6.28;2.92;;;;;;;18.89;100.00;-18535.25;5081609;28;20032;-78
2023/07/13 03:56:03;;;;;;;6.32;2.50;;;;;;;18.83;100.00;-18533.63;5078520;28;20043;-76
2023/07/13 03:58:40;;;;;;;6.95;2.75;;;;;;;18.85;100.00;-18534.16;5083971;28;20307;-76
2023/07/13 04:01:07;;;;;;;9.38;3.17;;;;;;;18.77;100.00;-18532.00;5081974;28;20109;-76
2023/07/13 04:03:33;;;;;;;9.90;2.65;;;;;;;18.78;100.00;-18532.25;5084864;28;20044;-78
2023/07/13 04:06:00;;;;;;;10.23;2.63;;;;;;;18.75;100.00;-18531.44;5077683;28;20033;-76
2023/07/13 04:08:28;;;;;;;7.68;2.55;;;;;;;18.67;100.00;-18529.53;5080570;28;20463;-77
2023/07/13 04:10:53;;;;;;;6.47;2.70;;;;;;;18.79;100.00;-18532.53;5081219;28;20498;-77
2023/07/13 04:13:18;;;;;;;8.63;2.55;;;;;;;18.88;100.00;-18535.00;5079016;28;20036;-77
2023/07/13 04:15:44;;;;;;;7.72;2.30;;;;;;;18.76;100.00;-18531.84;5082056;28;20044;-76
2023/07/13 04:18:09;;;;;;;9.38;3.30;;;;;;;18.81;100.00;-18533.22;5083851;28;20043;-77
2023/07/13 04:20:35;;;;;;;9.00;2.72;;;;;;;18.75;100.00;-18531.44;5078131;28;20040;-76
2023/07/13 04:23:00;;;;;;;6.40;2.70;;;;;;;18.84;100.00;-18533.91;5082172;28;20039;-76
2023/07/13 04:25:26;;;;;;;8.75;2.85;;;;;;;18.92;100.00;-18536.22;5081777;28;20058;-77
2023/07/13 04:27:53;;;;;;;7.15;2.60;;;;;;;18.86;100.00;-18534.56;5080396;28;20043;-76
2023/07/13 04:30:19;;;;;;;7.60;2.85;;;;;;;18.69;100.00;-18530.06;5077261;28;20102;-76
2023/07/13 04:32:44;;;;;;;9.48;2.83;;;;;;;18.73;100.00;-18531.03;5064096;28;20036;-77
2023/07/13 04:35:10;;;;;;;7.95;3.13;;;;;;;18.71;100.00;-18530.63;5082358;28;20036;-76
2023/07/13 04:37:35;;;;;;;6.95;2.72;;;;;;;18.71;100.00;-18530.63;5073883;28;20044;-76
2023/07/13 04:40:01;;;;;;;7.25;2.83;;;;;;;18.85;100.00;-18534.16;5076932;28;20840;-76
2023/07/13 04:42:26;;;;;;;5.57;2.90;;;;;;;18.75;100.00;-18531.56;5077300;28;20491;-77
2023/07/13 04:44:52;;;;;;;9.07;2.95;;;;;;;18.66;100.00;-18529.25;5077607;28;20148;-76
2023/07/13 04:47:18;;;;;;;7.13;2.83;;;;;;;18.63;100.00;-18528.31;5084347;28;20772;-76
2023/07/13 04:49:44;;;;;;;9.48;2.90;;;;;;;18.67;100.00;-18529.38;5064548;28;20177;-76
2023/07/13 04:52:09;;;;;;;7.97;2.95;;;;;;;18.71;100.00;-18530.47;5082994;28;20424;-76
2023/07/13 04:54:35;;;;;;;6.88;3.10;;;;;;;18.82;100.00;-18533.34;5076310;28;20068;-77
2023/07/13 04:57:00;;;;;;;10.25;3.75;;;;;;;18.74;100.00;-18531.31;5078503;28;20453;-76
2023/07/13 04:59:26;;;;;;;7.60;3.25;;;;;;;18.83;100.00;-18533.75;5074809;28;20040;-77
2023/07/13 05:01:52;;;;;;;10.02;3.00;;;;;;;18.92;100.00;-18536.06;5076403;28;20032;-76
2023/07/13 05:04:17;;;;;;;7.18;2.95;;;;;;;18.90;100.00;-18535.53;5063260;28;20050;-77
2023/07/13 05:06:43;;;;;;;6.05;2.70;;;;;;;18.96;100.00;-18537.16;5078728;28;20048;-77
2023/07/13 05:09:08;;;;;;;7.28;2.92;;;;;;;18.87;100.00;-18534.84;5074949;28;20796;-77
2023/07/13 05:11:33;;;;;;;10.50;3.25;;;;;;;18.84;100.00;-18533.91;5080381;28;20113;-77
2023/07/13 05:14:01;;;;;;;7.25;3.25;;;;;;;18.98;100.00;-18537.72;5080729;28;20036;-77
2023/07/13 05:16:27;;;;;;;14.93;3.75;;;;;;;18.94;100.00;-18536.63;5075311;28;20072;-78
2023/07/13 05:18:52;;;;;;;10.23;3.65;;;;;;;19.02;100.00;-18538.66;5077668;28;20032;-76
2023/07/13 05:21:18;;;;;;;9.32;2.95;;;;;;;19.04;100.00;-18539.34;5080199;28;20070;-77
2023/07/13 05:23:43;;;;;;;10.32;3.35;;;;;;;19.10;100.00;-18540.97;5074519;28;20054;-77
2023/07/13 05:26:09;;;;;;;10.32;3.45;;;;;;;19.42;100.00;-18549.28;5076078;28;20120;-77
2023/07/13 05:28:34;;;;;;;7.93;3.50;;;;;;;19.21;100.00;-18543.72;5058315;28;20050;-77
2023/07/13 05:31:00;;;;;;;9.25;3.67;;;;;;;19.45;100.00;-18550.25;5074919;28;20042;-77
2023/07/13 05:33:25;;;;;;;9.77;3.63;;;;;;;19.11;100.00;-18541.25;5078460;28;20523;-77
2023/07/13 05:35:52;;;;;;;9.85;3.50;;;;;;;19.14;100.00;-18541.94;5081476;28;20403;-77
2023/07/13 05:38:18;;;;;;;14.07;4.22;;;;;;;19.10;100.00;-18540.97;5079114;28;20048;-77
2023/07/13 05:40:44;;;;;;;8.25;3.40;;;;;;;19.03;100.00;-18539.06;5079004;28;20048;-77
2023/07/13 05:43:10;;;;;;;14.07;3.75;;;;;;;19.13;100.00;-18541.81;5055047;28;20052;-76
2023/07/13 05:45:35;;;;;;;7.40;3.45;;;;;;;19.26;100.00;-18545.06;5080910;28;20057;-77
2023/07/13 05:48:01;;;;;;;13.27;3.75;;;;;;;19.29;100.00;-18546.03;5080527;28;20079;-77
2023/07/13 05:50:27;;;;;;;7.97;3.22;;;;;;;19.23;100.00;-18544.25;5080952;28;20071;-77
2023/07/13 05:52:52;;;;;;;9.15;4.00;;;;;;;19.37;100.00;-18548.19;5073278;28;20047;-78
2023/07/13 05:55:18;;;;;;;12.88;3.58;;;;;;;19.42;100.00;-18549.44;5076825;28;20048;-77
2023/07/13 05:57:44;;;;;;;10.50;3.80;;;;;;;19.45;100.00;-18550.25;5078479;28;20051;-76
2023/07/13 06:00:10;;;;;;;12.50;3.92;;;;;;;19.45;100.00;-18550.25;5077302;28;20052;-77
2023/07/13 06:02:35;;;;;;;11.05;4.15;;;;;;;19.48;100.00;-18551.06;5080395;28;20073;-77
2023/07/13 06:05:01;;;;;;;13.18;4.63;;;;;;;19.58;100.00;-18553.78;5081974;28;20056;-76
2023/07/13 06:07:26;;;;;;;14.23;4.50;;;;;;;19.81;100.00;-18559.78;5080669;28;20067;-78
2023/07/13 06:09:51;;;;;;;13.13;4.25;;;;;;;19.80;100.00;-18559.66;5059199;28;20123;-77
2023/07/13 06:12:17;;;;;;;8.73;4.75;;;;;;;19.92;100.00;-18562.78;5077018;28;20406;-77
2023/07/13 06:14:42;;;;;;;14.07;4.93;;;;;;;19.91;100.00;-18562.38;5082327;28;20036;-77
2023/07/13 06:17:08;;;;;;;16.60;5.97;;;;;;;19.83;100.00;-18560.34;5072260;28;20037;-77
2023/07/13 06:19:34;;;;;;;11.10;5.60;;;;;;;19.91;100.00;-18562.50;5075301;28;20033;-77
2023/07/13 06:22:00;;;;;;;14.68;6.93;;;;;;;20.02;100.00;-18565.38;5081100;28;20128;-77
2023/07/13 06:24:25;;;;;;;15.65;6.55;;;;;;;19.98;100.00;-18564.28;5077911;28;20182;-75
2023/07/13 06:26:51;;;;;;;15.02;7.07;;;;;;;19.99;100.00;-18564.69;5084080;28;20067;-78
2023/07/13 06:29:16;;;;;;;17.40;7.70;;;;;;;20.05;100.00;-18566.19;5074068;28;20071;-77
2023/07/13 06:31:42;;;;;;;14.40;7.65;;;;;;;19.97;100.00;-18564.16;5072942;28;20395;-76
2023/07/13 06:34:08;;;;;;;18.65;7.65;;;;;;;20.12;100.00;-18567.97;5083709;28;20088;-77
2023/07/13 06:36:33;;;;;;;19.73;7.65;;;;;;;20.22;100.00;-18570.69;5079791;28;20063;-76
2023/07/13 06:38:59;;;;;;;19.75;8.80;;;;;;;20.24;100.00;-18571.22;5074262;28;20041;-76
2023/07/13 06:41:26;;;;;;;13.70;7.40;;;;;;;20.16;100.00;-18569.19;5078386;28;20127;-77
2023/07/13 06:43:53;;;;;;;17.67;8.98;;;;;;;20.04;100.00;-18566.03;5076397;28;20031;-77
2023/07/13 06:46:22;;;;;;;17.75;8.23;;;;;;;20.05;100.00;-18566.19;5076236;28;20053;-77
2023/07/13 06:48:48;;;;;;;18.77;10.00;;;;;;;20.15;100.00;-18568.91;5077737;28;20033;-77
2023/07/13 06:51:14;;;;;;;17.00;8.10;;;;;;;20.22;100.00;-18570.81;5074916;28;20659;-77
2023/07/13 06:53:40;;;;;;;17.05;8.65;;;;;;;20.25;100.00;-18571.50;5073693;28;20496;-78
2023/07/13 06:56:05;;;;;;;18.55;8.70;;;;;;;20.23;100.00;-18571.09;5079776;28;20036;-77
2023/07/13 06:58:31;;;;;;;17.23;9.70;;;;;;;20.17;100.00;-18569.31;5083497;28;20518;-77
2023/07/13 07:00:56;;;;;;;19.17;9.10;;;;;;;20.26;100.00;-18571.75;5073336;28;20815;-77
2023/07/13 07:03:22;;;;;;;21.83;10.35;;;;;;;20.22;100.00;-18570.81;5077295;28;20558;-76
2023/07/13 07:05:47;;;;;;;16.27;9.20;;;;;;;20.21;100.00;-18570.53;5075715;28;20560;-76
2023/07/13 07:08:13;;;;;;;17.63;8.85;;;;;;;20.19;100.00;-18569.84;5069678;28;20040;-77
2023/07/13 07:10:40;;;;;;;18.67;9.75;;;;;;;20.34;100.00;-18573.81;5070391;28;20628;-77
2023/07/13 07:13:06;;;;;;;23.42;10.88;;;;;;;20.54;100.00;-18579.25;5073627;28;20036;-77
2023/07/13 07:15:31;;;;;;;17.20;9.98;;;;;;;20.76;100.00;-18585.09;5073430;28;20089;-77
2023/07/13 07:17:56;;;;;;;20.85;11.00;;;;;;;20.59;100.00;-18580.47;5070092;28;20044;-76
2023/07/13 07:20:22;;;;;;;22.95;11.23;;;;;;;20.70;100.00;-18583.47;5059270;28;20504;-77
2023/07/13 07:22:48;;;;;;;17.50;8.75;;;;;;;20.68;100.00;-18582.94;5073810;28;20139;-77
2023/07/13 07:25:13;;;;;;;21.90;9.70;;;;;;;20.61;100.00;-18581.03;5069111;28;20123;-77
2023/07/13 07:27:39;;;;;;;19.45;9.57;;;;;;;20.71;100.00;-18583.75;5071519;28;20131;-78
2023/07/13 07:30:05;;;;;;;23.55;11.05;;;;;;;20.71;100.00;-18583.75;5077267;28;20058;-77
2023/07/13 07:32:31;;;;;;;17.33;9.65;;;;;;;20.90;100.00;-18588.91;5074510;28;20040;-78
2023/07/13 07:34:59;;;;;;;22.98;10.38;;;;;;;21.01;100.00;-18591.78;5076727;28;20097;-77
2023/07/13 07:37:25;;;;;;;19.83;10.20;;;;;;;21.03;100.00;-18592.19;5080510;28;20044;-77
2023/07/13 07:39:50;;;;;;;18.92;10.35;;;;;;;21.11;100.00;-18594.47;5080738;28;20040;-77
2023/07/13 07:42:16;;;;;;;16.65;10.07;;;;;;;21.07;100.00;-18593.25;5073235;28;20595;-76
2023/07/13 07:44:41;;;;;;;16.10;9.95;;;;;;;21.02;100.00;-18592.03;5077786;28;20048;-75
2023/07/13 07:47:08;;;;;;;22.52;10.63;;;;;;;20.96;100.00;-18590.53;5080561;28;20044;-76
2023/07/13 07:49:34;;;;;;;21.00;10.73;;;;;;;21.04;100.00;-18592.59;5081044;28;20078;-76
2023/07/13 07:52:00;;;;;;;18.83;10.45;;;;;;;20.94;100.00;-18590.00;5073314;28;20058;-76
2023/07/13 07:54:25;;;;;;;24.25;11.27;;;;;;;21.16;100.00;-18595.84;5069342;28;20614;-76
2023/07/13 07:56:51;;;;;;;19.73;10.93;;;;;;;21.10;100.00;-18594.09;5071268;28;20040;-77
2023/07/13 07:59:16;;;;;;;17.67;10.10;;;;;;;21.18;100.00;-18596.38;5080583;28;20611;-76
2023/07/13 08:01:43;;;;;;;23.83;10.40;;;;;;;20.92;100.00;-18589.47;5065289;28;20127;-77
2023/07/13 08:04:09;;;;;;;18.50;9.45;;;;;;;20.85;100.00;-18587.56;5078489;28;20059;-76
2023/07/13 08:06:34;;;;;;;13.95;9.00;;;;;;;20.74;100.00;-18584.56;5076307;28;20495;-76
2023/07/13 08:09:01;;;;;;;19.67;10.32;;;;;;;20.98;100.00;-18590.81;5069413;28;20068;-76
2023/07/13 08:11:26;;;;;;;19.15;10.38;;;;;;;21.01;100.00;-18591.63;5076070;28;20047;-77
2023/07/13 08:13:52;;;;;;;16.10;9.40;;;;;;;21.15;100.00;-18595.44;5081546;28;20032;-76
2023/07/13 08:16:17;;;;;;;20.27;9.60;;;;;;;21.25;100.00;-18598.16;5074838;28;20062;-78
2023/07/13 08:18:43;;;;;;;19.45;9.55;;;;;;;21.29;100.00;-18599.09;5079201;28;20033;-76
2023/07/13 08:21:09;;;;;;;16.13;10.20;;;;;;;21.35;100.00;-18600.88;5071565;28;20082;-77
2023/07/13 08:23:35;;;;;;;21.45;9.48;;;;;;;21.47;100.00;-18604.00;5070931;28;20043;-77
2023/07/13 08:26:01;;;;;;;16.02;8.25;;;;;;;21.29;100.00;-18599.09;5077105;28;20040;-76
2023/07/13 08:28:27;;;;;;;20.33;10.07;;;;;;;21.45;100.00;-18603.47;5064969;28;20048;-77
2023/07/13 08:30:52;;;;;;;20.65;10.45;;;;;;;21.64;100.00;-18608.50;5078391;28;20742;-77
2023/07/13 08:33:19;;;;;;;22.48;10.32;;;;;;;21.50;100.00;-18604.69;5060385;28;20052;-78
2023/07/13 08:35:48;;;;;;;17.92;10.07;;;;;;;21.50;100.00;-18604.69;5065421;28;20051;-77
2023/07/13 08:38:14;;;;;;;19.98;10.55;;;;;;;21.45;100.00;-18603.31;5077652;28;20040;-77
2023/07/13 08:40:41;;;;;;;24.02;10.85;;;;;;;21.55;100.00;-18606.19;5072662;28;20718;-78
2023/07/13 08:43:13;;;;;;;24.10;10.88;;;;;;;21.72;100.00;-18610.66;5079563;28;20419;-77
2023/07/13 08:45:44;;;;;;;19.80;10.07;;;;;;;21.83;100.00;-18613.53;5077152;28;20048;-76
2023/07/13 08:48:35;;;;;;;19.00;9.82;;;;;;;21.78;100.00;-18612.31;5077851;28;20040;-76
2023/07/13 08:51:17;;;;;;;22.17;10.40;;;;;;;21.80;100.00;-18612.84;5076841;28;20040;-77
2023/07/13 08:53:48;;;;;;;19.80;10.00;;;;;;;21.74;100.00;-18611.22;5079954;28;20069;-77
2023/07/13 08:56:24;;;;;;;23.70;9.77;;;;;;;21.55;100.00;-18606.19;5075263;28;20036;-78
2023/07/13 08:58:55;;;;;;;21.73;10.27;;;;;;;21.49;100.00;-18604.41;5068251;28;20495;-77
2023/07/13 09:01:30;;;;;;;20.45;9.80;;;;;;;21.85;100.00;-18614.19;5058184;28;20438;-77
2023/07/13 09:04:03;;;;;;;19.65;10.48;;;;;;;22.02;100.00;-18618.53;5071001;28;20066;-77
2023/07/13 09:06:54;;;;;;;22.15;9.23;;;;;;;21.86;100.00;-18614.47;5069893;28;20105;-77
2023/07/13 09:09:29;;;;;;;17.67;9.98;;;;;;;21.98;100.00;-18617.47;5062388;28;20674;-77
2023/07/13 09:12:14;;;;;;;22.33;10.15;;;;;;;21.81;100.00;-18613.13;5073806;28;20047;-77
2023/07/13 09:14:47;;;;;;;21.00;9.13;;;;;;;22.05;100.00;-18619.50;5076307;28;20054;-76
2023/07/13 09:17:17;;;;;;;20.48;8.82;;;;;;;21.80;100.00;-18612.84;5075826;28;20043;-77
2023/07/13 09:19:45;;;;;;;21.55;8.82;;;;;;;21.81;100.00;-18612.97;5076705;28;20042;-78
2023/07/13 09:22:17;;;;;;;20.13;9.23;;;;;;;21.85;100.00;-18614.06;5076482;28;20054;-78
2023/07/13 09:24:57;;;;;;;19.23;9.25;;;;;;;22.18;100.00;-18622.75;5077694;28;20036;-76
2023/07/13 09:27:31;;;;;;;22.90;9.10;;;;;;;22.07;100.00;-18619.91;5061711;28;20046;-78
2023/07/13 09:30:14;;;;;;;16.60;8.52;;;;;;;22.29;100.00;-18625.75;5070972;28;20479;-77
2023/07/13 09:32:47;;;;;;;17.95;9.25;;;;;;;22.28;100.00;-18625.63;5074701;28;20067;-76
2023/07/13 09:35:16;;;;;;;18.73;8.75;;;;;;;22.00;100.00;-18618.00;5056923;28;20131;-77
2023/07/13 09:37:43;;;;;;;;;;;;;;;22.32;100.00;-18626.56;5071753;28;20062;-76
2023/07/13 09:40:25;;;;;;;19.08;9.60;;;;;;;22.49;100.00;-18631.03;5078958;28;19931;-77
2023/07/13 09:42:53;;;;;;;17.77;8.65;;;;;;;22.51;100.00;-18631.59;5064948;28;20043;-78
2023/07/13 09:45:27;;;;;;;15.23;8.55;;;;;;;22.68;100.00;-18636.06;5055642;28;20101;-77
2023/07/13 09:48:07;;;;;;;13.93;8.38;;;;;;;22.48;100.00;-18630.78;5077019;28;20110;-77
2023/07/13 09:50:33;;;;;;;18.67;8.13;;;;;;;22.80;100.00;-18639.31;5073037;28;20067;-77
2023/07/13 09:53:01;;;;;;;17.48;7.25;;;;;;;22.80;100.00;-18639.19;5076223;28;20743;-78
2023/07/13 09:55:38;;;;;;;14.57;6.60;;;;;;;22.99;100.00;-18644.34;5076488;28;20040;-77
2023/07/13 09:58:10;;;;;;;16.23;6.43;;;;;;;23.12;100.00;-18647.75;5072205;28;20046;-76
2023/07/13 10:00:36;;;;;;;12.93;6.55;;;;;;;23.22;98.76;-18650.47;5073648;28;20061;-77
2023/07/13 10:03:03;;;;;;;13.10;6.70;;;;;;;23.38;97.76;-18654.78;5076837;28;20036;-77
2023/07/13 10:05:37;;;;;;;10.45;6.72;;;;;;;23.00;100.00;-18644.63;5077343;28;20154;-77
2023/07/13 10:08:03;;;;;;;12.18;6.35;;;;;;;23.24;100.00;-18650.88;5074148;28;20045;-77
2023/07/13 10:10:28;;;;;;;15.18;6.90;;;;;;;23.07;100.00;-18646.38;5074739;28;20039;-78
2023/07/13 10:12:53;;;;;;;12.50;6.47;;;;;;;22.98;100.00;-18644.06;5073494;28;20644;-76
2023/07/13 10:15:21;;;;;;;11.48;6.88;;;;;;;23.02;99.07;-18645.16;5074206;28;20636;-77
2023/07/13 10:17:49;;;;;;;11.90;6.80;;;;;;;22.88;100.00;-18641.50;5075809;28;20032;-77
2023/07/13 10:20:14;;;;;;;13.10;6.40;;;;;;;22.88;100.00;-18641.50;5071916;28;20041;-77
2023/07/13 10:22:54;;;;;;;12.05;7.13;;;;;;;23.16;100.00;-18648.97;5081088;28;20043;-78
2023/07/13 10:25:23;;;;;;;11.10;6.57;;;;;;;23.50;98.55;-18657.91;5077611;28;20126;-77
2023/07/13 10:27:52;;;;;;;;;;;;;;;23.33;96.04;-18653.31;5079096;28;20247;-77
2023/07/13 10:30:17;;;;;;;10.77;5.32;;;;;;;23.22;91.60;-18650.31;5081297;28;19923;-77
2023/07/13 10:32:44;;;;;;;9.93;4.68;;;;;;;23.20;88.63;-18649.91;5085455;28;20395;-78
2023/07/13 10:35:12;;;;;;;9.88;5.45;;;;;;;23.17;93.01;-18649.25;5064485;28;20385;-77
2023/07/13 10:38:02;;;;;;;15.65;5.95;;;;;;;23.30;92.65;-18652.50;5078274;28;20044;-78
2023/07/13 10:40:35;;;;;;;12.40;5.07;;;;;;;23.55;87.56;-18659.28;5080686;28;20165;-77
2023/07/13 10:43:04;;;;;;;10.23;5.47;;;;;;;23.59;91.68;-18660.34;5068998;28;20628;-76
2023/07/13 10:45:34;;;;;;;10.45;5.55;;;;;;;23.60;89.43;-18660.63;5083159;28;20039;-75
2023/07/13 10:47:59;;;;;;;9.60;5.07;;;;;;;23.37;85.82;-18654.53;5064021;28;20047;-75
2023/07/13 10:50:28;;;;;;;11.90;5.00;;;;;;;23.72;86.44;-18663.63;5087415;28;20074;-76
2023/07/13 10:52:57;;;;;;;9.75;4.90;;;;;;;23.80;85.69;-18665.91;5080984;28;20029;-76
2023/07/13 10:55:59;;;;;;;12.05;6.18;;;;;;;23.89;83.59;-18668.22;5087363;28;20032;-78
2023/07/13 10:58:36;;;;;;;10.57;4.80;;;;;;;24.17;85.00;-18675.69;5071941;28;20036;-77
2023/07/13 11:01:15;;;;;;;11.00;4.93;;;;;;;23.97;78.35;-18670.25;5074708;28;20032;-77
2023/07/13 11:03:43;;;;;;;13.38;4.72;;;;;;;23.91;80.27;-18668.63;5080821;28;20094;-77
2023/07/13 11:06:29;;;;;;;9.75;5.20;;;;;;;23.82;75.92;-18666.31;5075592;28;20114;-77
2023/07/13 11:08:56;;;;;;;13.20;5.47;;;;;;;23.65;80.60;-18662.00;5075071;28;20584;-76
2023/07/13 11:11:38;;;;;;;10.23;5.47;;;;;;;23.55;93.96;-18659.13;5075893;28;20040;-76
2023/07/13 11:14:25;;;;;;;11.02;6.50;;;;;;;23.24;100.00;-18650.88;5071210;28;20039;-76